createdAt,value
2022-11-27T00:01:44.777Z,101767.81
2022-11-27T00:04:17.780Z,101775.89
2022-11-27T00:06:50.768Z,101761.13
2022-11-27T00:09:23.760Z,101749.87
2022-11-27T00:11:56.698Z,101753.63
2022-11-27T00:14:29.665Z,101745.83
2022-11-27T00:17:03.020Z,101753.91
2022-11-27T00:19:38.125Z,101751.53
2022-11-27T00:22:14.010Z,101758.77
2022-11-27T00:24:47.989Z,101755.54
2022-11-27T00:27:21.088Z,101760.00
2022-11-27T00:29:54.310Z,101751.38
2022-11-27T00:32:27.444Z,101749.83
2022-11-27T00:35:02.002Z,101753.44
2022-11-27T00:37:35.113Z,101757.91
2022-11-27T00:40:10.253Z,101759.84
2022-11-27T00:42:56.524Z,101761.78
2022-11-27T00:45:29.854Z,101768.03
2022-11-27T00:48:03.097Z,101766.48
2022-11-27T00:50:35.926Z,101761.34
2022-11-27T00:53:08.834Z,101771.21
2022-11-27T00:55:41.856Z,101766.05
2022-11-27T00:58:14.872Z,101767.02
2022-11-27T01:00:48.543Z,101768.95
2022-11-27T01:03:21.573Z,101771.75
2022-11-27T01:05:54.938Z,101772.72
2022-11-27T01:08:30.731Z,101770.19
2022-11-27T01:11:06.273Z,101767.70
2022-11-27T01:13:40.009Z,101770.45
2022-11-27T01:16:15.464Z,101770.61
2022-11-27T01:18:50.311Z,101777.82
2022-11-27T01:21:24.336Z,101768.23
2022-11-27T01:23:59.448Z,101768.32
2022-11-27T01:26:32.617Z,101768.47
2022-11-27T01:29:05.647Z,101773.86
2022-11-27T01:31:38.694Z,101765.13
2022-11-27T01:34:17.509Z,101769.70
2022-11-27T01:36:50.533Z,101768.84
2022-11-27T01:39:24.991Z,101764.53
2022-11-27T01:41:57.962Z,101764.53
2022-11-27T01:45:03.129Z,101764.69
2022-11-27T01:47:45.698Z,101768.41
2022-11-27T01:50:23.344Z,101766.36
2022-11-27T01:53:03.336Z,101767.59
2022-11-27T01:55:39.566Z,101770.34
2022-11-27T01:58:14.960Z,101766.88
2022-11-27T02:00:47.824Z,101764.36
2022-11-27T02:03:20.925Z,101765.33
2022-11-27T02:05:54.537Z,101767.97
2022-11-27T02:08:27.845Z,101755.74
2022-11-27T02:11:06.478Z,101767.27
2022-11-27T02:13:47.050Z,101767.41
2022-11-27T02:16:31.130Z,101771.02
2022-11-27T02:19:16.765Z,101769.34
2022-11-27T02:21:56.022Z,101766.70
2022-11-27T02:24:50.493Z,101767.79
2022-11-27T02:27:44.107Z,101767.79
2022-11-27T02:30:17.737Z,101767.23
2022-11-27T02:32:56.599Z,101780.28
2022-11-27T02:35:33.939Z,101773.48
2022-11-27T02:38:13.063Z,101772.51
2022-11-27T02:40:55.898Z,101768.20
2022-11-27T02:43:33.788Z,101769.98
2022-11-27T02:46:11.167Z,101772.63
2022-11-27T02:48:49.109Z,101775.27
2022-11-27T02:51:25.559Z,101770.95
2022-11-27T02:54:02.291Z,101772.88
2022-11-27T02:56:36.328Z,101774.70
2022-11-27T02:59:12.576Z,101766.78
2022-11-27T03:01:53.623Z,101775.67
2022-11-27T03:04:33.732Z,101770.51
2022-11-27T03:07:11.405Z,101776.64
2022-11-27T03:09:48.420Z,101772.33
2022-11-27T03:12:22.182Z,101767.31
2022-11-27T03:14:57.335Z,101767.16
2022-11-27T03:17:44.125Z,101770.77
2022-11-27T03:20:23.144Z,101766.45
2022-11-27T03:22:58.354Z,101771.88
2022-11-27T03:25:31.959Z,101772.70
2022-11-27T03:28:12.342Z,101775.34
2022-11-27T03:30:45.246Z,101777.16
2022-11-27T03:33:19.487Z,101777.16
2022-11-27T03:35:53.590Z,101775.48
2022-11-27T03:38:26.776Z,101771.99
2022-11-27T03:41:07.324Z,101776.45
2022-11-27T03:43:49.052Z,101771.28
2022-11-27T03:46:30.994Z,101773.92
2022-11-27T03:49:10.287Z,101772.25
2022-11-27T03:51:51.463Z,101774.07
2022-11-27T03:54:36.987Z,101769.62
2022-11-27T03:57:22.181Z,101770.58
2022-11-27T03:59:58.092Z,101769.77
2022-11-27T04:02:41.654Z,101772.40
2022-11-27T04:05:15.621Z,101776.00
2022-11-27T04:07:48.945Z,101772.52
2022-11-27T04:10:23.862Z,101781.28
2022-11-27T04:12:56.839Z,101774.44
2022-11-27T04:15:31.005Z,101781.53
2022-11-27T04:18:04.277Z,101785.14
2022-11-27T04:20:37.388Z,101783.47
2022-11-27T04:23:13.488Z,101783.47
2022-11-27T04:25:46.256Z,101778.19
2022-11-27T04:28:19.520Z,101781.80
2022-11-27T04:30:56.280Z,101778.30
2022-11-27T04:33:34.024Z,101777.59
2022-11-27T04:36:07.648Z,101776.63
2022-11-27T04:38:40.644Z,101780.23
2022-11-27T04:41:13.595Z,101789.81
2022-11-27T04:43:47.784Z,101785.50
2022-11-27T04:46:22.156Z,101783.84
2022-11-27T04:48:55.163Z,101783.84
2022-11-27T04:51:29.975Z,101788.28
2022-11-27T04:54:02.875Z,101783.13
2022-11-27T04:56:36.377Z,101784.95
2022-11-27T04:59:09.411Z,101788.40
2022-11-27T05:01:42.461Z,101782.42
2022-11-27T05:04:15.490Z,101788.66
2022-11-27T05:06:48.439Z,101785.20
2022-11-27T05:09:21.816Z,101793.11
2022-11-27T05:11:54.794Z,101789.77
2022-11-27T05:14:29.466Z,101789.87
2022-11-27T05:17:03.427Z,101810.97
2022-11-27T05:19:36.260Z,101801.39
2022-11-27T05:22:25.013Z,101801.39
2022-11-27T05:25:08.118Z,101811.93
2022-11-27T05:27:41.319Z,101812.05
2022-11-27T05:30:15.053Z,101807.73
2022-11-27T05:32:48.117Z,101814.82
2022-11-27T05:35:21.201Z,101821.06
2022-11-27T05:37:54.174Z,101816.75
2022-11-27T05:40:27.211Z,101815.90
2022-11-27T05:43:00.282Z,101825.63
2022-11-27T05:45:33.298Z,101826.59
2022-11-27T05:48:06.357Z,101816.16
2022-11-27T05:50:39.260Z,101824.06
2022-11-27T05:53:12.462Z,101821.42
2022-11-27T05:55:45.460Z,101822.28
2022-11-27T05:58:19.445Z,101831.00
2022-11-27T06:00:52.767Z,101828.37
2022-11-27T06:03:26.546Z,101825.73
2022-11-27T06:05:59.857Z,101821.42
2022-11-27T06:08:32.895Z,101827.41
2022-11-27T06:11:10.364Z,101823.81
2022-11-27T06:13:43.852Z,101822.02
2022-11-27T06:16:19.073Z,101816.61
2022-11-27T06:18:55.440Z,101822.59
2022-11-27T06:21:28.532Z,101818.06
2022-11-27T06:24:01.479Z,101815.28
2022-11-27T06:26:35.774Z,101814.20
2022-11-27T06:29:08.716Z,101820.19
2022-11-27T06:31:42.312Z,101823.39
2022-11-27T06:34:16.855Z,101813.44
2022-11-27T06:36:51.036Z,101813.18
2022-11-27T06:39:24.145Z,101817.23
2022-11-27T06:41:57.074Z,101818.66
2022-11-27T06:44:30.294Z,101821.03
2022-11-27T06:47:03.093Z,101824.12
2022-11-27T06:49:36.436Z,101824.68
2022-11-27T06:52:11.642Z,101826.09
2022-11-27T06:54:44.618Z,101824.75
2022-11-27T06:57:18.059Z,101827.95
2022-11-27T06:59:51.226Z,101832.00
2022-11-27T07:02:24.143Z,101823.71
2022-11-27T07:04:57.205Z,101822.48
2022-11-27T07:07:30.389Z,101824.72
2022-11-27T07:10:03.406Z,101830.47
2022-11-27T07:12:36.395Z,101838.01
2022-11-27T07:15:10.925Z,101832.31
2022-11-27T07:17:43.697Z,101835.39
2022-11-27T07:20:17.321Z,101839.44
2022-11-27T07:22:50.239Z,101834.60
2022-11-27T07:25:23.756Z,101843.93
2022-11-27T07:27:59.966Z,101841.61
2022-11-27T07:30:33.295Z,101838.70
2022-11-27T07:33:06.424Z,101837.31
2022-11-27T07:35:39.368Z,101838.59
2022-11-27T07:38:12.618Z,101836.38
2022-11-27T07:40:45.733Z,101838.48
2022-11-27T07:43:18.666Z,101837.24
2022-11-27T07:45:51.864Z,101836.70
2022-11-27T07:48:24.768Z,101844.08
2022-11-27T07:50:57.877Z,101840.20
2022-11-27T07:53:30.915Z,101842.30
2022-11-27T07:56:03.899Z,101839.38
2022-11-27T07:58:36.945Z,101839.64
2022-11-27T08:01:15.169Z,101836.61
2022-11-27T08:03:56.919Z,101844.11
2022-11-27T08:06:38.652Z,101841.76
2022-11-27T08:09:11.872Z,101846.61
2022-11-27T08:11:59.588Z,101832.14
2022-11-27T08:14:35.552Z,101835.20
2022-11-27T08:17:18.007Z,101836.47
2022-11-27T08:20:02.754Z,101834.36
2022-11-27T08:22:37.085Z,101839.09
2022-11-27T08:25:18.559Z,101845.64
2022-11-27T08:27:53.181Z,101848.70
2022-11-27T08:30:29.882Z,101842.97
2022-11-27T08:33:04.414Z,101842.56
2022-11-27T08:35:39.009Z,101848.10
2022-11-27T08:38:19.808Z,101845.73
2022-11-27T08:41:00.535Z,101844.31
2022-11-27T08:44:09.168Z,101846.55
2022-11-27T08:46:44.699Z,101846.66
2022-11-27T08:49:30.412Z,101837.33
2022-11-27T08:52:08.278Z,101844.53
2022-11-27T08:54:41.788Z,101845.78
2022-11-27T08:57:15.976Z,101840.72
2022-11-27T08:59:51.609Z,101840.14
2022-11-27T09:02:24.455Z,101845.70
2022-11-27T09:04:57.615Z,101842.46
2022-11-27T09:07:31.478Z,101849.00
2022-11-27T09:10:05.070Z,101847.59
2022-11-27T09:12:43.369Z,101846.16
2022-11-27T09:15:18.211Z,101844.88
2022-11-27T09:17:51.404Z,101838.98
2022-11-27T09:20:24.785Z,101839.37
2022-11-27T09:22:57.840Z,101831.80
2022-11-27T09:25:31.008Z,101830.52
2022-11-27T09:28:04.895Z,101827.26
2022-11-27T09:30:38.676Z,101826.83
2022-11-27T09:33:11.974Z,101818.40
2022-11-27T09:35:47.059Z,101817.11
2022-11-27T09:38:21.346Z,101815.69
2022-11-27T09:41:03.123Z,101816.20
2022-11-27T09:43:46.178Z,101811.44
2022-11-27T09:46:37.058Z,101817.12
2022-11-27T09:49:23.033Z,101813.17
2022-11-27T09:52:01.601Z,101817.19
2022-11-27T09:54:48.015Z,101817.02
2022-11-27T09:57:51.517Z,101821.70
2022-11-27T10:00:27.910Z,101812.63
2022-11-27T10:03:04.354Z,101813.13
2022-11-27T10:05:56.373Z,101804.18
2022-11-27T10:08:52.525Z,101806.52
2022-11-27T10:11:45.444Z,101806.38
2022-11-27T10:14:44.441Z,101803.42
2022-11-27T10:21:38.834Z,101790.34
2022-11-27T10:24:43.321Z,101791.69
2022-11-27T10:30:34.321Z,101785.76
2022-11-27T10:33:19.242Z,101784.62
2022-11-27T10:36:34.669Z,101782.65
2022-11-27T10:39:32.876Z,101786.80
2022-11-27T10:42:18.059Z,101779.50
2022-11-27T10:45:01.079Z,101777.52
2022-11-27T10:47:38.903Z,101772.89
2022-11-27T10:50:17.497Z,101775.55
2022-11-27T10:52:58.619Z,101769.91
2022-11-27T10:55:58.765Z,101772.42
2022-11-27T10:58:38.546Z,101768.78
2022-11-27T11:06:11.737Z,101760.00
2022-11-27T11:08:22.550Z,101756.88
2022-11-27T11:11:03.377Z,101757.55
2022-11-27T11:14:02.560Z,101753.73
2022-11-27T11:16:45.595Z,101747.42
2022-11-27T11:19:31.539Z,101744.95
2022-11-27T11:22:15.171Z,101736.48
2022-11-27T11:24:51.358Z,101729.50
2022-11-27T11:27:28.052Z,101729.84
2022-11-27T11:30:09.053Z,101730.84
2022-11-27T11:32:45.277Z,101727.86
2022-11-27T11:35:32.372Z,101723.39
2022-11-27T11:38:16.305Z,101717.91
2022-11-27T11:41:02.004Z,101717.91
2022-11-27T11:43:38.452Z,101710.45
2022-11-27T11:46:23.081Z,101714.11
2022-11-27T11:48:59.987Z,101708.47
2022-11-27T11:52:22.716Z,101704.97
2022-11-27T11:55:13.863Z,101707.63
2022-11-27T11:58:10.657Z,101696.98
2022-11-27T12:01:18.985Z,101700.31
2022-11-27T12:04:02.444Z,101699.99
2022-11-27T12:06:46.920Z,101699.67
2022-11-27T12:09:39.287Z,101702.17
2022-11-27T12:12:23.369Z,101694.02
2022-11-27T12:15:04.154Z,101687.71
2022-11-27T12:17:55.277Z,101698.34
2022-11-27T12:20:41.133Z,101687.23
2022-11-27T12:23:41.797Z,101679.25
2022-11-27T12:26:23.922Z,101688.89
2022-11-27T12:29:17.750Z,101683.72
2022-11-27T12:32:26.794Z,101682.40
2022-11-27T12:35:17.537Z,101681.06
2022-11-27T12:38:02.323Z,101679.08
2022-11-27T12:40:56.779Z,101680.06
2022-11-27T12:43:32.158Z,101678.08
2022-11-27T12:46:15.020Z,101676.74
2022-11-27T12:48:53.590Z,101677.41
2022-11-27T12:51:31.581Z,101677.92
2022-11-27T12:54:11.696Z,101680.39
2022-11-27T12:56:52.170Z,101682.23
2022-11-27T12:59:30.397Z,101687.70
2022-11-27T13:02:24.119Z,101673.25
2022-11-27T13:05:02.790Z,101680.38
2022-11-27T13:07:42.985Z,101682.89
2022-11-27T13:10:25.827Z,101677.90
2022-11-27T13:13:07.393Z,101682.37
2022-11-27T13:15:46.446Z,101676.38
2022-11-27T13:18:28.001Z,101680.88
2022-11-27T13:21:04.068Z,101673.06
2022-11-27T13:23:37.876Z,101676.89
2022-11-27T13:26:29.328Z,101673.56
2022-11-27T13:30:07.114Z,101675.55
2022-11-27T13:32:53.093Z,101669.71
2022-11-27T13:35:28.128Z,101678.86
2022-11-27T13:38:34.901Z,101670.54
2022-11-27T13:41:21.864Z,101669.02
2022-11-27T13:43:56.015Z,101664.88
2022-11-27T13:46:32.802Z,101671.51
2022-11-27T13:53:15.985Z,101670.31
2022-11-27T13:55:59.339Z,101670.63
2022-11-27T13:58:44.476Z,101667.48
2022-11-27T14:02:06.364Z,101668.62
2022-11-27T14:04:56.592Z,101669.78
2022-11-27T14:08:11.562Z,101670.10
2022-11-27T14:11:06.672Z,101661.78
2022-11-27T14:19:18.834Z,101660.23
2022-11-27T14:22:10.596Z,101672.16
2022-11-27T14:24:47.943Z,101673.45
2022-11-27T14:40:25.846Z,101671.34
2022-11-27T14:43:11.894Z,101668.19
2022-11-27T14:54:09.046Z,101661.92
2022-11-27T14:56:44.781Z,101661.42
2022-11-27T14:59:20.184Z,101661.05
2022-11-27T15:02:04.388Z,101660.68
2022-11-27T15:04:40.576Z,101660.14
2022-11-27T15:07:19.408Z,101664.09
2022-11-27T15:09:55.740Z,101659.27
2022-11-27T15:12:32.207Z,101657.91
2022-11-27T15:15:09.378Z,101667.15
2022-11-27T15:17:46.566Z,101664.80
2022-11-27T15:20:24.829Z,101670.41
2022-11-27T15:23:00.177Z,101667.38
2022-11-27T15:25:39.186Z,101672.00
2022-11-27T15:28:31.211Z,101666.30
2022-11-27T15:31:04.080Z,101668.56
2022-11-27T15:33:37.893Z,101673.31
2022-11-27T15:36:20.895Z,101667.64
2022-11-27T15:39:05.438Z,101669.60
2022-11-27T15:41:42.361Z,101684.13
2022-11-27T15:44:17.708Z,101681.78
2022-11-27T15:46:52.165Z,101676.79
2022-11-27T15:49:25.568Z,101679.60
2022-11-27T15:52:00.345Z,101676.27
2022-11-27T15:54:34.041Z,101686.17
2022-11-27T15:57:07.517Z,101678.53
2022-11-27T15:59:41.324Z,101677.84
2022-11-27T16:02:18.117Z,101671.86
2022-11-27T16:04:53.263Z,101676.48
2022-11-27T16:07:26.663Z,101681.09
2022-11-27T16:09:59.888Z,101676.91
2022-11-27T16:12:33.205Z,101672.76
2022-11-27T16:15:07.086Z,101667.59
2022-11-27T16:17:42.526Z,101665.24
2022-11-27T16:20:18.559Z,101669.69
2022-11-27T16:22:53.201Z,101670.83
2022-11-27T16:25:26.807Z,101660.54
2022-11-27T16:28:03.073Z,101661.52
2022-11-27T16:30:37.082Z,101667.92
2022-11-27T16:33:10.606Z,101663.61
2022-11-27T16:35:44.823Z,101673.52
2022-11-27T16:38:19.037Z,101675.48
2022-11-27T16:40:53.323Z,101674.80
2022-11-27T16:43:26.740Z,101671.45
2022-11-27T16:46:07.486Z,101669.95
2022-11-27T16:48:43.386Z,101665.77
2022-11-27T16:51:19.066Z,101666.91
2022-11-27T16:53:54.425Z,101665.25
2022-11-27T16:56:29.352Z,101662.73
2022-11-27T16:59:03.713Z,101668.31
2022-11-27T17:01:39.334Z,101665.83
2022-11-27T17:04:20.591Z,101665.95
2022-11-27T17:06:54.233Z,101667.10
2022-11-27T17:09:29.558Z,101663.77
2022-11-27T17:12:02.725Z,101660.44
2022-11-27T17:14:39.012Z,101666.14
2022-11-27T17:17:14.975Z,101661.14
2022-11-27T17:19:49.442Z,101660.45
2022-11-27T17:22:24.246Z,101653.50
2022-11-27T17:24:58.231Z,101663.55
2022-11-27T17:27:31.832Z,101660.05
2022-11-27T17:30:05.637Z,101665.80
2022-11-27T17:32:39.991Z,101660.79
2022-11-27T17:35:15.744Z,101665.23
2022-11-27T17:37:50.200Z,101664.55
2022-11-27T17:40:24.334Z,101667.48
2022-11-27T17:42:58.138Z,101681.67
2022-11-27T17:45:33.458Z,101675.70
2022-11-27T17:48:07.556Z,101687.41
2022-11-27T17:50:42.460Z,101685.87
2022-11-27T17:53:16.223Z,101671.95
2022-11-27T17:55:50.230Z,101675.58
2022-11-27T17:58:24.445Z,101689.77
2022-11-27T18:00:58.618Z,101688.27
2022-11-27T18:03:33.862Z,101677.97
2022-11-27T18:06:08.617Z,101679.92
2022-11-27T18:08:42.221Z,101680.05
2022-11-27T18:11:18.993Z,101679.35
2022-11-27T18:13:52.696Z,101679.52
2022-11-27T18:16:29.571Z,101681.46
2022-11-27T18:19:06.262Z,101678.95
2022-11-27T18:21:40.419Z,101684.52
2022-11-27T18:24:28.947Z,101688.13
2022-11-27T18:27:10.150Z,101686.62
2022-11-27T18:29:45.781Z,101685.92
2022-11-27T18:32:20.486Z,101684.26
2022-11-27T18:34:55.057Z,101683.56
2022-11-27T18:37:29.398Z,101679.38
2022-11-27T18:40:03.203Z,101683.84
2022-11-27T18:42:37.621Z,101678.84
2022-11-27T18:45:31.711Z,101681.61
2022-11-27T18:48:10.701Z,101686.89
2022-11-27T18:50:45.482Z,101678.42
2022-11-27T18:53:22.164Z,101688.14
2022-11-27T18:56:01.190Z,101680.50
2022-11-27T18:58:35.536Z,101679.67
2022-11-27T19:01:13.671Z,101683.41
2022-11-27T19:03:49.014Z,101678.29
2022-11-27T19:06:25.315Z,101681.91
2022-11-27T19:09:00.137Z,101679.53
2022-11-27T19:11:34.191Z,101683.16
2022-11-27T19:14:08.378Z,101685.09
2022-11-27T19:16:46.612Z,101685.22
2022-11-27T19:22:17.214Z,101688.99
2022-11-27T19:24:50.990Z,101689.96
2022-11-27T19:27:24.182Z,101691.21
2022-11-27T19:29:58.185Z,101694.67
2022-11-27T19:32:31.655Z,101689.54
2022-11-27T19:35:07.448Z,101692.30
2022-11-27T19:37:41.234Z,101682.02
2022-11-27T19:40:17.209Z,101682.86
2022-11-27T19:42:54.563Z,101684.81
2022-11-27T19:45:31.701Z,101685.78
2022-11-27T19:48:06.223Z,101691.19
2022-11-27T19:50:39.884Z,101685.20
2022-11-27T19:53:14.093Z,101677.28
2022-11-27T19:55:56.372Z,101682.84
2022-11-27T19:58:30.097Z,101682.02
2022-11-27T20:01:11.095Z,101679.50
2022-11-27T20:03:46.855Z,101680.47
2022-11-27T20:06:22.437Z,101681.45
2022-11-27T20:09:01.316Z,101684.09
2022-11-27T20:11:36.536Z,101675.47
2022-11-27T20:14:11.150Z,101673.80
2022-11-27T20:16:44.787Z,101675.62
2022-11-27T20:19:18.850Z,101670.45
2022-11-27T20:21:52.563Z,101668.79
2022-11-27T20:24:26.514Z,101664.48
2022-11-27T20:26:59.483Z,101676.01
2022-11-27T20:29:32.613Z,101670.88
2022-11-27T20:32:06.696Z,101673.52
2022-11-27T20:34:40.673Z,101678.92
2022-11-27T20:37:14.652Z,101671.97
2022-11-27T20:39:48.178Z,101662.27
2022-11-27T20:42:22.503Z,101667.55
2022-11-27T20:44:56.391Z,101659.74
2022-11-27T20:47:29.991Z,101661.56
2022-11-27T20:50:04.839Z,101661.69
2022-11-27T20:52:38.624Z,101654.73
2022-11-27T20:55:13.007Z,101662.66
2022-11-27T20:57:49.717Z,101665.30
2022-11-27T21:00:27.199Z,101670.73
2022-11-27T21:03:01.078Z,101673.48
2022-11-27T21:05:35.299Z,101673.48
2022-11-27T21:08:09.437Z,101678.92
2022-11-27T21:10:43.304Z,101682.53
2022-11-27T21:13:16.848Z,101671.97
2022-11-27T21:15:50.404Z,101674.73
2022-11-27T21:18:25.615Z,101678.48
2022-11-27T21:21:05.623Z,101676.91
2022-11-27T21:23:40.043Z,101685.55
2022-11-27T21:26:16.412Z,101687.47
2022-11-27T21:28:50.466Z,101691.92
2022-11-27T21:31:26.065Z,101692.89
2022-11-27T21:34:01.494Z,101688.58
2022-11-27T21:36:37.946Z,101684.27
2022-11-27T21:39:14.588Z,101682.61
2022-11-27T21:41:47.614Z,101682.61
2022-11-27T21:44:22.663Z,101685.36
2022-11-27T21:46:56.365Z,101690.52
2022-11-27T21:49:30.189Z,101691.34
2022-11-27T21:52:03.563Z,101686.22
2022-11-27T21:54:39.230Z,101689.82
2022-11-27T21:57:13.166Z,101686.48
2022-11-27T21:59:47.127Z,101687.45
2022-11-27T22:02:20.690Z,101686.33
2022-11-27T22:04:54.642Z,101689.82
2022-11-27T22:07:28.582Z,101684.11
2022-11-27T22:10:02.245Z,101681.33
2022-11-27T22:12:35.809Z,101683.70
2022-11-27T22:15:11.539Z,101678.42
2022-11-27T22:17:45.117Z,101673.29
2022-11-27T22:20:19.798Z,101674.25
2022-11-27T22:22:53.412Z,101673.41
2022-11-27T22:25:27.172Z,101670.92
2022-11-27T22:28:01.122Z,101675.23
2022-11-27T22:30:34.980Z,101672.70
2022-11-27T22:33:08.937Z,101669.09
2022-11-27T22:35:42.243Z,101671.73
2022-11-27T22:38:15.807Z,101672.59
2022-11-27T22:40:49.958Z,101665.64
2022-11-27T22:43:23.743Z,101672.70
2022-11-27T22:45:57.221Z,101667.58
2022-11-27T22:48:30.552Z,101674.64
2022-11-27T22:51:04.632Z,101668.66
2022-11-27T22:53:38.855Z,101672.42
2022-11-27T22:56:14.229Z,101669.78
2022-11-27T22:58:48.045Z,101662.84
2022-11-27T23:01:24.456Z,101664.77
2022-11-27T23:04:00.139Z,101669.08
2022-11-27T23:06:33.725Z,101664.77
2022-11-27T23:09:07.927Z,101666.56
2022-11-27T23:11:41.531Z,101665.74
2022-11-27T23:14:15.138Z,101664.07
2022-11-27T23:16:49.190Z,101664.07
2022-11-27T23:19:22.733Z,101660.59
2022-11-27T23:21:56.126Z,101667.68
2022-11-27T23:24:29.523Z,101661.70
2022-11-27T23:27:02.516Z,101662.52
2022-11-27T23:29:36.109Z,101661.70
2022-11-27T23:32:10.246Z,101658.22
2022-11-27T23:34:43.561Z,101649.33
2022-11-27T23:37:16.938Z,101645.88
2022-11-27T23:39:50.708Z,101643.23
2022-11-27T23:42:23.762Z,101645.88
2022-11-27T23:44:57.133Z,101648.62
2022-11-27T23:47:30.912Z,101648.52
2022-11-27T23:50:04.982Z,101638.78
2022-11-27T23:52:38.706Z,101641.56
2022-11-27T23:55:14.497Z,101643.23
2022-11-27T23:57:48.617Z,101638.78
